createdAt,value
2018-08-30T00:00:29.434Z,62738.51
2018-08-30T00:02:34.150Z,62753.34
2018-08-30T00:04:38.977Z,62738.82
2018-08-30T00:06:43.676Z,62705.99
2018-08-30T00:08:48.510Z,62719.50
2018-08-30T00:10:53.418Z,62723.65
2018-08-30T00:12:58.228Z,62708.47
2018-08-30T00:15:02.961Z,62707.75
2018-08-30T00:17:07.720Z,62718.78
2018-08-30T00:19:12.466Z,62717.41
2018-08-30T00:21:17.204Z,62705.36
2018-08-30T00:23:21.947Z,62707.75
2018-08-30T00:25:26.715Z,62708.56
2018-08-30T00:27:31.445Z,62719.09
2018-08-30T00:29:36.355Z,62707.60
2018-08-30T00:31:41.093Z,62712.47
2018-08-30T00:33:45.914Z,62707.28
2018-08-30T00:35:50.717Z,62719.65
2018-08-30T00:37:55.500Z,62699.21
2018-08-30T00:40:00.242Z,62702.32
2018-08-30T00:42:05.079Z,62724.37
2018-08-30T00:44:09.911Z,62707.84
2018-08-30T00:46:14.728Z,62703.04
2018-08-30T00:48:19.572Z,62714.87
2018-08-30T00:52:21.109Z,62711.91
2018-08-30T00:54:25.884Z,62731.64
2018-08-30T00:56:30.766Z,62722.05
2018-08-30T00:58:35.570Z,62739.07
2018-08-30T01:00:40.325Z,62723.97
2018-08-30T01:02:45.118Z,62726.05
2018-08-30T01:04:49.787Z,62729.56
2018-08-30T01:06:54.639Z,62762.04
2018-08-30T01:08:59.474Z,62730.84
2018-08-30T01:11:04.211Z,62730.36
2018-08-30T01:13:09.005Z,62735.55
2018-08-30T01:15:13.667Z,62735.71
2018-08-30T01:17:18.462Z,62733.47
2018-08-30T01:19:23.318Z,62743.56
2018-08-30T01:21:28.259Z,62735.55
2018-08-30T01:23:33.105Z,62744.84
2018-08-30T01:25:38.086Z,62738.27
2018-08-30T01:27:42.874Z,62741.30
2018-08-30T01:29:47.590Z,62757.25
2018-08-30T01:31:52.459Z,62773.63
2018-08-30T01:33:57.208Z,62746.87
2018-08-30T01:36:01.973Z,62736.92
2018-08-30T01:38:06.758Z,62726.61
2018-08-30T01:40:11.503Z,62728.44
2018-08-30T01:42:16.180Z,62754.21
2018-08-30T01:44:20.906Z,62747.34
2018-08-30T01:46:25.660Z,62742.29
2018-08-30T01:48:30.587Z,62733.16
2018-08-30T01:50:36.312Z,62734.04
2018-08-30T01:52:41.195Z,62740.59
2018-08-30T01:54:45.996Z,62738.75
2018-08-30T01:56:50.913Z,62763.00
2018-08-30T01:58:55.789Z,62765.96
2018-08-30T02:01:00.573Z,62757.65
2018-08-30T02:03:05.831Z,62760.61
2018-08-30T02:05:10.611Z,62751.82
2018-08-30T02:07:15.468Z,62768.44
2018-08-30T02:09:20.236Z,62744.52
2018-08-30T02:11:24.931Z,62742.18
2018-08-30T02:13:29.673Z,62761.08
2018-08-30T02:15:34.509Z,62760.45
2018-08-30T02:17:39.430Z,62763.87
2018-08-30T02:19:44.245Z,62750.38
2018-08-30T02:21:49.053Z,62766.76
2018-08-30T02:23:53.829Z,62742.84
2018-08-30T02:25:58.532Z,62749.98
2018-08-30T02:28:03.521Z,62750.14
2018-08-30T02:30:08.430Z,62760.92
2018-08-30T02:32:13.091Z,62769.71
2018-08-30T02:34:17.920Z,62753.09
2018-08-30T02:36:22.738Z,62748.46
2018-08-30T02:38:27.545Z,62747.07
2018-08-30T02:40:32.595Z,62742.29
2018-08-30T02:42:37.481Z,62761.64
2018-08-30T02:44:42.491Z,62747.74
2018-08-30T02:46:47.352Z,62751.41
2018-08-30T02:48:52.134Z,62760.12
2018-08-30T02:50:57.033Z,62737.07
2018-08-30T02:53:01.964Z,62752.93
2018-08-30T02:55:06.800Z,62785.22
2018-08-30T02:57:11.703Z,62779.79
2018-08-30T02:59:16.509Z,62765.64
2018-08-30T03:01:21.332Z,62775.22
2018-08-30T03:03:26.260Z,62769.71
2018-08-30T03:05:31.140Z,62767.88
2018-08-30T03:07:35.901Z,62775.47
2018-08-30T03:09:40.668Z,62766.11
2018-08-30T03:11:45.354Z,62765.40
2018-08-30T03:13:50.188Z,62758.53
2018-08-30T03:15:54.964Z,62754.21
2018-08-30T03:17:59.805Z,62777.39
2018-08-30T03:20:05.752Z,62776.59
2018-08-30T03:22:10.541Z,62778.66
2018-08-30T03:24:15.264Z,62769.40
2018-08-30T03:26:20.053Z,62757.72
2018-08-30T03:28:24.796Z,62741.15
2018-08-30T03:30:29.787Z,62745.24
2018-08-30T03:32:34.368Z,62740.43
2018-08-30T03:34:39.053Z,62737.95
2018-08-30T03:36:43.959Z,62738.19
2018-08-30T03:38:49.225Z,62729.25
2018-08-30T03:40:54.086Z,62744.68
2018-08-30T03:42:58.949Z,62729.49
2018-08-30T03:45:03.771Z,62747.23
2018-08-30T03:47:08.596Z,62756.29
2018-08-30T03:49:13.451Z,62772.60
2018-08-30T03:51:18.224Z,62774.19
2018-08-30T03:53:22.908Z,62755.17
2018-08-30T03:55:27.786Z,62765.55
2018-08-30T03:57:32.567Z,62752.93
2018-08-30T03:59:37.724Z,62767.23
2018-08-30T04:01:42.527Z,62768.35
2018-08-30T04:03:47.518Z,62752.62
2018-08-30T04:05:52.300Z,62748.06
2018-08-30T04:07:57.112Z,62752.93
2018-08-30T04:10:01.905Z,62759.24
2018-08-30T04:12:06.663Z,62757.32
2018-08-30T04:14:11.459Z,62754.37
2018-08-30T04:16:16.191Z,62753.96
2018-08-30T04:18:20.893Z,62752.93
2018-08-30T04:20:25.835Z,62777.46
2018-08-30T04:22:30.792Z,62773.16
2018-08-30T04:24:35.559Z,62769.55
2018-08-30T04:26:40.297Z,62786.10
2018-08-30T04:28:45.168Z,62783.86
2018-08-30T04:30:49.868Z,62765.89
2018-08-30T04:32:54.614Z,62777.55
2018-08-30T04:34:59.382Z,62777.86
2018-08-30T04:37:05.234Z,62774.75
2018-08-30T04:39:10.498Z,62759.64
2018-08-30T04:41:15.161Z,62753.25
2018-08-30T04:43:19.883Z,62764.68
2018-08-30T04:45:24.747Z,62764.12
2018-08-30T04:47:29.500Z,62752.78
2018-08-30T04:49:34.385Z,62769.55
2018-08-30T04:51:39.198Z,62752.85
2018-08-30T04:53:43.908Z,62751.82
2018-08-30T04:55:48.700Z,62755.33
2018-08-30T04:57:53.550Z,62752.93
2018-08-30T04:59:58.244Z,62760.05
2018-08-30T05:02:03.134Z,62747.23
2018-08-30T05:04:07.993Z,62741.30
2018-08-30T05:06:13.314Z,62768.20
2018-08-30T05:08:18.170Z,62768.59
2018-08-30T05:10:23.162Z,62774.19
2018-08-30T05:12:27.911Z,62753.74
2018-08-30T05:14:32.660Z,62752.22
2018-08-30T05:16:37.829Z,62784.82
2018-08-30T05:18:42.880Z,62772.36
2018-08-30T05:20:47.834Z,62746.47
2018-08-30T05:22:52.763Z,62736.04
2018-08-30T05:24:57.920Z,62757.25
2018-08-30T05:27:02.849Z,62757.65
2018-08-30T05:29:07.812Z,62775.55
2018-08-30T05:31:12.518Z,62774.03
2018-08-30T05:33:17.307Z,62798.09
2018-08-30T05:35:22.145Z,62782.98
2018-08-30T05:37:27.008Z,62787.06
2018-08-30T05:39:32.103Z,62779.23
2018-08-30T05:41:37.127Z,62760.61
2018-08-30T05:43:41.844Z,62755.98
2018-08-30T05:45:46.579Z,62770.43
2018-08-30T05:47:51.703Z,62774.43
2018-08-30T05:49:56.382Z,62772.82
2018-08-30T05:52:01.255Z,62770.12
2018-08-30T05:54:06.177Z,62776.83
2018-08-30T05:56:10.917Z,62790.97
2018-08-30T05:58:16.136Z,62802.32
2018-08-30T06:00:20.992Z,62798.65
2018-08-30T06:02:26.037Z,62786.34
2018-08-30T06:04:30.861Z,62794.33
2018-08-30T06:06:35.594Z,62813.06
2018-08-30T06:08:40.330Z,62814.66
2018-08-30T06:10:45.078Z,62807.04
2018-08-30T06:12:49.821Z,62824.81
2018-08-30T06:14:54.843Z,62820.65
2018-08-30T06:16:59.735Z,62780.90
2018-08-30T06:19:04.844Z,62805.52
2018-08-30T06:21:10.235Z,62818.57
2018-08-30T06:23:14.916Z,62785.78
2018-08-30T06:25:19.867Z,62792.25
2018-08-30T06:27:24.823Z,62792.81
2018-08-30T06:29:29.492Z,62784.10
2018-08-30T06:31:34.319Z,62813.94
2018-08-30T06:33:38.971Z,62798.25
2018-08-30T06:35:43.656Z,62831.13
2018-08-30T06:37:49.245Z,62835.12
2018-08-30T06:39:53.982Z,62816.89
2018-08-30T06:41:58.789Z,62813.78
2018-08-30T06:44:03.898Z,62833.28
2018-08-30T06:46:08.568Z,62843.44
2018-08-30T06:48:13.264Z,62835.77
2018-08-30T06:50:18.304Z,62839.44
2018-08-30T06:52:23.072Z,62817.05
2018-08-30T06:54:27.771Z,62820.34
2018-08-30T06:56:32.615Z,62810.66
2018-08-30T06:58:37.473Z,62801.85
2018-08-30T07:00:42.977Z,62791.78
2018-08-30T07:02:47.843Z,62811.30
2018-08-30T07:04:52.719Z,62829.45
2018-08-30T07:06:57.426Z,62829.29
2018-08-30T07:09:02.297Z,62828.41
2018-08-30T07:11:07.036Z,62841.12
2018-08-30T07:13:11.739Z,62835.05
2018-08-30T07:15:16.566Z,62842.88
2018-08-30T07:17:21.293Z,62837.84
2018-08-30T07:19:26.252Z,62841.05
2018-08-30T07:21:31.257Z,62856.48
2018-08-30T07:23:36.104Z,62854.88
2018-08-30T07:25:40.806Z,62855.76
2018-08-30T07:27:45.570Z,62872.89
2018-08-30T07:29:50.315Z,62881.00
2018-08-30T07:31:55.091Z,62889.56
2018-08-30T07:33:59.783Z,62908.68
2018-08-30T07:36:04.665Z,62906.92
2018-08-30T07:38:09.465Z,62923.80
2018-08-30T07:40:14.226Z,62916.28
2018-08-30T07:42:19.045Z,62907.96
2018-08-30T07:44:23.913Z,62892.76
2018-08-30T07:46:29.018Z,62902.28
2018-08-30T07:48:33.747Z,62903.56
2018-08-30T07:50:38.398Z,62913.48
2018-08-30T07:52:43.153Z,62905.48
2018-08-30T07:54:47.862Z,62939.27
2018-08-30T07:56:53.009Z,62938.21
2018-08-30T07:58:58.383Z,62939.03
2018-08-30T08:01:14.847Z,62926.36
2018-08-30T08:03:20.419Z,62904.84
2018-08-30T08:05:25.739Z,62892.68
2018-08-30T08:07:30.503Z,62886.91
2018-08-30T08:09:35.184Z,62873.16
2018-08-30T08:11:39.871Z,62880.84
2018-08-30T08:13:44.605Z,62878.20
2018-08-30T08:15:49.296Z,62897.96
2018-08-30T08:17:54.014Z,62913.64
2018-08-30T08:19:58.724Z,62912.68
2018-08-30T08:22:03.696Z,62910.92
2018-08-30T08:24:08.448Z,62931.72
2018-08-30T08:26:13.208Z,62915.72
2018-08-30T08:28:17.943Z,62943.59
2018-08-30T08:30:23.104Z,62975.71
2018-08-30T08:32:27.902Z,62958.16
2018-08-30T08:34:32.744Z,62965.36
2018-08-30T08:36:37.472Z,62964.48
2018-08-30T08:38:42.193Z,62988.36
2018-08-30T08:40:47.532Z,62967.61
2018-08-30T08:42:52.350Z,62964.40
2018-08-30T08:44:57.095Z,62983.56
2018-08-30T08:47:01.977Z,62998.13
2018-08-30T08:49:06.745Z,63000.70
2018-08-30T08:51:12.167Z,63008.16
2018-08-30T08:53:16.974Z,62989.73
2018-08-30T08:55:21.942Z,62980.68
2018-08-30T08:57:26.902Z,62979.40
2018-08-30T08:59:31.756Z,62996.77
2018-08-30T09:01:36.553Z,63013.05
2018-08-30T09:03:41.387Z,63006.00
2018-08-30T09:05:46.126Z,63000.70
2018-08-30T09:07:50.983Z,63017.78
2018-08-30T09:09:55.734Z,63042.61
2018-08-30T09:12:00.441Z,63016.82
2018-08-30T09:14:05.294Z,63020.58
2018-08-30T09:16:10.031Z,63046.37
2018-08-30T09:18:14.761Z,63021.06
2018-08-30T09:20:19.551Z,63049.50
2018-08-30T09:22:24.435Z,63080.23
2018-08-30T09:24:29.231Z,63090.17
2018-08-30T09:26:34.315Z,63079.67
2018-08-30T09:28:39.066Z,46329.62
2018-08-30T09:30:43.834Z,46330.59
2018-08-30T09:32:48.612Z,46327.68
2018-08-30T09:34:53.722Z,46333.49
2018-08-30T09:36:58.443Z,46345.11
2018-08-30T09:39:03.291Z,46348.01
2018-08-30T09:41:08.186Z,46351.88
2018-08-30T09:43:13.223Z,46268.65
2018-08-30T09:45:18.212Z,46349.94
2018-08-30T09:47:22.929Z,46348.01
2018-08-30T09:49:28.133Z,46339.30
2018-08-30T09:51:32.945Z,46361.56
2018-08-30T09:53:37.721Z,46359.62
2018-08-30T09:55:42.511Z,46358.65
2018-08-30T09:57:47.198Z,46347.04
2018-08-30T09:59:52.038Z,46339.30
2018-08-30T10:02:01.826Z,46353.82
2018-08-30T10:04:06.728Z,46363.49
2018-08-30T10:06:11.535Z,46362.52
2018-08-30T10:08:16.310Z,46350.91
2018-08-30T10:10:21.216Z,46343.17
2018-08-30T10:12:26.024Z,46345.11
2018-08-30T10:14:30.813Z,46348.98
2018-08-30T10:16:35.825Z,46345.11
2018-08-30T10:18:40.639Z,46356.72
2018-08-30T10:20:45.558Z,46357.69
2018-08-30T10:22:50.428Z,46342.20
2018-08-30T10:24:55.195Z,46371.23
2018-08-30T10:26:59.964Z,46349.94
2018-08-30T10:29:04.826Z,46348.01
2018-08-30T10:31:09.581Z,46353.82
2018-08-30T10:33:14.308Z,46355.75
2018-08-30T10:35:19.108Z,46363.49
2018-08-30T10:37:23.827Z,46354.79
2018-08-30T10:39:28.657Z,46371.23
2018-08-30T10:41:33.536Z,46351.88
2018-08-30T10:43:38.297Z,46353.82
2018-08-30T10:45:43.042Z,46374.14
2018-08-30T10:47:47.764Z,46367.36
2018-08-30T10:49:52.589Z,46377.04
2018-08-30T10:51:57.671Z,46366.39
2018-08-30T10:54:02.442Z,46374.14
2018-08-30T10:56:07.215Z,46357.69
2018-08-30T10:58:12.011Z,46367.36
2018-08-30T11:00:17.758Z,46352.85
2018-08-30T11:02:22.995Z,46365.43
2018-08-30T11:04:27.973Z,46368.33
2018-08-30T11:06:32.954Z,46347.04
2018-08-30T11:08:37.785Z,46354.79
2018-08-30T11:10:42.525Z,46367.36
2018-08-30T11:12:47.292Z,46361.56
2018-08-30T11:14:51.985Z,46357.69
2018-08-30T11:16:56.781Z,46367.36
2018-08-30T11:19:01.702Z,46381.88
2018-08-30T11:21:06.577Z,46378.98
2018-08-30T11:23:11.376Z,46369.30
2018-08-30T11:25:16.082Z,46382.85
2018-08-30T11:27:20.847Z,46365.43
2018-08-30T11:29:25.881Z,46362.52
2018-08-30T11:31:30.695Z,46383.82
2018-08-30T11:33:38.586Z,46376.07
2018-08-30T11:35:43.265Z,46377.04
2018-08-30T11:37:48.008Z,46379.95
2018-08-30T11:39:53.004Z,46375.11
2018-08-30T11:41:57.850Z,46370.27
2018-08-30T11:44:02.957Z,46385.75
2018-08-30T11:46:07.966Z,46357.69
2018-08-30T11:48:13.162Z,46371.23
2018-08-30T11:50:18.220Z,46380.91
2018-08-30T11:52:23.308Z,46387.69
2018-08-30T11:54:27.969Z,46378.98
2018-08-30T11:56:32.822Z,46394.46
2018-08-30T11:58:37.505Z,46379.95
2018-08-30T12:00:42.345Z,46373.17
2018-08-30T12:02:47.424Z,46402.21
2018-08-30T12:04:52.928Z,46394.46
2018-08-30T12:06:57.824Z,46363.49
2018-08-30T12:09:02.615Z,46382.85
2018-08-30T12:11:07.474Z,46364.46
2018-08-30T12:13:12.099Z,46369.30
2018-08-30T12:15:16.870Z,46380.91
2018-08-30T12:17:21.563Z,46358.65
2018-08-30T12:19:26.323Z,46374.14
2018-08-30T12:21:31.098Z,46380.91
2018-08-30T12:23:35.791Z,46375.11
2018-08-30T12:25:40.497Z,46378.01
2018-08-30T12:27:45.227Z,46381.88
2018-08-30T12:29:49.907Z,46359.62
2018-08-30T12:31:54.672Z,46385.75
2018-08-30T12:33:59.648Z,46379.95
2018-08-30T12:36:04.608Z,46378.01
2018-08-30T12:38:09.438Z,46387.69
2018-08-30T12:40:14.349Z,46371.23
2018-08-30T12:42:18.994Z,46377.04
2018-08-30T12:44:24.244Z,46388.66
2018-08-30T12:46:29.418Z,46392.53
2018-08-30T12:48:34.185Z,46383.82
2018-08-30T12:50:39.059Z,46382.85
2018-08-30T12:52:43.856Z,46388.66
2018-08-30T12:54:48.726Z,46391.56
2018-08-30T12:56:53.460Z,46376.07
2018-08-30T12:59:03.240Z,46369.30
2018-08-30T13:01:08.447Z,46387.69
2018-08-30T13:03:13.329Z,46378.01
2018-08-30T13:05:18.281Z,46375.11
2018-08-30T13:07:24.717Z,46375.11
2018-08-30T13:09:29.851Z,46388.66
2018-08-30T13:11:34.592Z,46396.40
2018-08-30T13:13:39.431Z,46399.30
2018-08-30T13:15:44.394Z,46394.46
2018-08-30T13:17:49.366Z,46381.88
2018-08-30T13:19:54.206Z,46364.46
2018-08-30T13:21:58.917Z,46394.46
2018-08-30T13:24:03.724Z,46395.43
2018-08-30T13:26:08.752Z,46395.43
2018-08-30T13:28:13.426Z,46393.49
2018-08-30T13:30:18.479Z,46393.49
2018-08-30T13:32:23.342Z,46378.98
2018-08-30T13:34:27.755Z,46401.24
2018-08-30T13:36:32.468Z,46380.91
2018-08-30T13:38:37.357Z,46385.75
2018-08-30T13:40:42.238Z,46381.88
2018-08-30T13:42:46.927Z,46404.14
2018-08-30T13:44:51.723Z,46374.14
2018-08-30T13:46:56.486Z,46390.59
2018-08-30T13:49:01.421Z,46390.59
2018-08-30T13:51:06.277Z,46384.79
2018-08-30T13:53:11.188Z,46397.36
2018-08-30T13:55:16.201Z,46392.53
2018-08-30T13:57:20.905Z,46393.49
2018-08-30T13:59:25.788Z,46406.07
2018-08-30T14:01:31.892Z,46393.49
2018-08-30T14:03:36.220Z,46406.07
2018-08-30T14:05:41.092Z,46409.95
2018-08-30T14:07:45.945Z,46408.01
2018-08-30T14:09:50.876Z,46405.11
2018-08-30T14:11:56.173Z,46410.91
2018-08-30T14:14:00.713Z,46406.07
2018-08-30T14:16:05.307Z,46397.36
2018-08-30T14:18:09.994Z,46408.01
2018-08-30T14:20:14.868Z,46410.91
2018-08-30T14:22:19.711Z,46380.91
2018-08-30T14:24:24.423Z,46397.36
2018-08-30T14:26:29.236Z,46416.72
2018-08-30T14:28:33.973Z,46392.53
2018-08-30T14:30:38.724Z,46414.79
2018-08-30T14:32:43.500Z,46379.95
2018-08-30T14:34:48.299Z,46390.59
2018-08-30T14:36:53.134Z,46404.14
2018-08-30T14:38:58.351Z,46400.27
2018-08-30T14:41:03.117Z,46389.62
2018-08-30T14:43:07.954Z,46407.04
2018-08-30T14:45:13.140Z,46378.01
2018-08-30T14:47:17.838Z,46395.43
2018-08-30T14:49:22.639Z,46403.17
2018-08-30T14:51:28.019Z,46400.27
2018-08-30T14:53:32.828Z,46387.69
2018-08-30T14:55:37.603Z,46407.04
2018-08-30T14:57:42.343Z,46412.85
2018-08-30T14:59:47.310Z,46383.82
2018-08-30T15:01:52.467Z,46400.27
2018-08-30T15:03:57.405Z,46397.36
2018-08-30T15:06:02.679Z,46403.17
2018-08-30T15:08:07.367Z,46402.21
2018-08-30T15:10:12.179Z,46396.40
2018-08-30T15:12:17.004Z,46402.21
2018-08-30T15:14:21.955Z,46390.59
2018-08-30T15:16:26.707Z,46408.01
2018-08-30T15:18:31.537Z,46384.79
2018-08-30T15:20:36.569Z,46411.88
2018-08-30T15:22:41.553Z,46403.17
2018-08-30T15:24:46.194Z,46413.82
2018-08-30T15:26:50.940Z,46403.17
2018-08-30T15:28:55.860Z,46414.79
2018-08-30T15:31:00.710Z,46389.62
2018-08-30T15:33:05.637Z,46393.49
2018-08-30T15:35:10.428Z,46386.72
2018-08-30T15:37:15.198Z,46373.17
2018-08-30T15:39:20.024Z,46395.43
2018-08-30T15:41:24.955Z,46401.24
2018-08-30T15:43:29.571Z,46407.04
2018-08-30T15:45:34.452Z,46406.07
2018-08-30T15:47:39.313Z,46400.27
2018-08-30T15:49:44.308Z,46402.21
2018-08-30T15:51:49.117Z,46385.75
2018-08-30T15:53:53.954Z,46408.01
2018-08-30T15:55:58.674Z,46415.75
2018-08-30T15:58:03.497Z,46413.82
2018-08-30T16:00:08.948Z,46400.27
2018-08-30T16:02:13.948Z,46418.66
2018-08-30T16:04:18.672Z,46414.79
2018-08-30T16:06:23.588Z,46409.95
2018-08-30T16:08:28.261Z,46412.85
2018-08-30T16:10:33.017Z,46411.88
2018-08-30T16:12:38.009Z,46449.62
2018-08-30T16:14:42.838Z,46428.34
2018-08-30T16:16:48.450Z,46433.18
2018-08-30T16:18:53.563Z,46446.72
2018-08-30T16:20:58.507Z,46443.82
2018-08-30T16:23:08.659Z,46427.37
2018-08-30T16:25:13.416Z,46423.50
2018-08-30T16:27:18.271Z,46416.72
2018-08-30T16:29:23.071Z,46420.59
2018-08-30T16:31:28.055Z,46422.53
2018-08-30T16:33:32.940Z,46407.04
2018-08-30T16:35:37.753Z,46410.91
2018-08-30T16:37:42.860Z,46390.59
2018-08-30T16:39:47.748Z,46401.24
2018-08-30T16:41:52.595Z,46399.30
2018-08-30T16:43:57.476Z,46399.30
2018-08-30T16:46:02.354Z,46385.75
2018-08-30T16:48:07.525Z,46408.01
2018-08-30T16:50:12.388Z,46403.17
2018-08-30T16:52:17.053Z,46398.33
2018-08-30T16:54:21.881Z,46388.66
2018-08-30T16:56:26.849Z,46406.07
2018-08-30T16:58:31.601Z,46400.27
2018-08-30T17:00:36.718Z,46394.46
2018-08-30T17:02:41.941Z,46393.49
2018-08-30T17:04:46.743Z,46403.17
2018-08-30T17:06:51.607Z,46399.30
2018-08-30T17:08:56.500Z,46391.56
2018-08-30T17:11:01.316Z,46400.27
2018-08-30T17:13:06.045Z,46393.49
2018-08-30T17:15:10.863Z,46396.40
2018-08-30T17:17:16.134Z,46386.72
2018-08-30T17:19:29.077Z,46391.56
2018-08-30T17:21:34.036Z,46384.79
2018-08-30T17:23:38.948Z,46399.30
2018-08-30T17:25:44.115Z,46383.82
2018-08-30T17:27:48.963Z,46388.66
2018-08-30T17:29:53.810Z,46392.53
2018-08-30T17:31:58.618Z,46397.36
2018-08-30T17:34:03.430Z,46407.04
2018-08-30T17:36:08.444Z,46391.56
2018-08-30T17:38:13.136Z,46387.69
2018-08-30T17:40:18.067Z,46388.66
2018-08-30T17:42:22.840Z,46389.62
2018-08-30T17:44:27.754Z,46380.91
2018-08-30T17:46:32.602Z,46381.88
2018-08-30T17:48:37.383Z,46391.56
2018-08-30T17:50:42.211Z,46385.75
2018-08-30T17:52:47.174Z,46380.91
2018-08-30T17:54:52.194Z,46381.88
2018-08-30T17:56:57.080Z,46378.01
2018-08-30T17:59:01.923Z,46379.95
2018-08-30T18:01:06.821Z,46368.33
2018-08-30T18:03:11.993Z,46369.30
2018-08-30T18:05:17.174Z,46382.85
2018-08-30T18:07:21.896Z,46372.20
2018-08-30T18:09:26.747Z,46379.95
2018-08-30T18:11:31.721Z,46359.62
2018-08-30T18:13:36.560Z,46361.56
2018-08-30T18:15:41.372Z,46379.95
2018-08-30T18:17:46.708Z,46371.23
2018-08-30T18:19:52.473Z,46355.75
2018-08-30T18:21:57.223Z,46365.43
2018-08-30T18:24:02.706Z,46346.07
2018-08-30T18:26:07.895Z,46370.27
2018-08-30T18:28:12.916Z,46353.82
2018-08-30T18:30:18.119Z,46366.39
2018-08-30T18:32:23.121Z,46349.94
2018-08-30T18:34:28.522Z,46355.75
2018-08-30T18:36:33.680Z,46370.27
2018-08-30T18:38:38.960Z,46358.65
2018-08-30T18:40:43.873Z,46348.98
2018-08-30T18:42:48.951Z,46350.91
2018-08-30T18:44:53.834Z,46344.14
2018-08-30T18:46:58.899Z,46344.14
2018-08-30T18:49:03.815Z,46329.62
2018-08-30T18:51:08.730Z,46347.04
2018-08-30T18:53:13.638Z,46345.11
2018-08-30T18:55:18.662Z,46352.85
2018-08-30T18:57:24.442Z,46354.79
2018-08-30T18:59:29.283Z,46348.98
2018-08-30T19:01:34.644Z,46349.94
2018-08-30T19:03:41.788Z,46344.14
2018-08-30T19:05:46.881Z,46327.68
2018-08-30T19:07:52.202Z,46337.36
2018-08-30T19:09:57.500Z,46345.11
2018-08-30T19:12:04.167Z,46339.30
2018-08-30T19:14:10.734Z,46335.43
2018-08-30T19:18:22.277Z,46334.46
2018-08-30T19:20:28.650Z,46338.33
2018-08-30T19:22:33.922Z,46351.88
2018-08-30T19:24:44.892Z,46335.43
2018-08-30T19:26:50.835Z,46343.17
2018-08-30T19:28:57.057Z,46328.65
2018-08-30T19:31:02.986Z,46346.07
2018-08-30T19:33:12.097Z,46348.01
2018-08-30T19:35:25.516Z,46348.01
2018-08-30T19:37:32.199Z,46343.17
2018-08-30T19:39:41.751Z,46334.46
2018-08-30T19:41:51.241Z,46333.49
2018-08-30T19:44:00.547Z,46332.52
2018-08-30T19:46:12.468Z,46321.88
2018-08-30T19:48:21.744Z,46321.88
2018-08-30T19:50:28.959Z,46327.68
2018-08-30T19:52:36.752Z,46336.39
2018-08-30T19:54:45.482Z,46325.75
2018-08-30T19:56:50.749Z,46320.91
2018-08-30T19:58:57.236Z,46333.49
2018-08-30T20:01:05.976Z,46318.01
2018-08-30T20:03:15.161Z,46320.91
2018-08-30T20:05:22.833Z,46299.62
2018-08-30T20:07:28.345Z,46316.07
2018-08-30T20:09:33.563Z,46330.59
2018-08-30T20:11:39.549Z,46320.91
2018-08-30T20:13:45.106Z,46316.07
2018-08-30T20:15:50.924Z,46318.01
2018-08-30T20:17:57.456Z,46301.55
2018-08-30T20:20:02.658Z,46329.62
2018-08-30T20:22:11.675Z,46323.81
2018-08-30T20:24:17.027Z,46321.88
2018-08-30T20:26:22.429Z,46332.52
2018-08-30T20:28:27.670Z,46328.65
2018-08-30T20:33:16.438Z,46315.11
2018-08-30T20:35:21.653Z,46308.33
2018-08-30T20:37:26.563Z,46317.04
2018-08-30T20:39:31.760Z,46318.01
2018-08-30T20:41:36.654Z,46322.85
2018-08-30T20:43:41.419Z,46319.94
2018-08-30T20:45:46.480Z,46307.36
2018-08-30T20:47:52.029Z,46302.52
2018-08-30T20:49:57.353Z,46300.59
2018-08-30T20:52:02.440Z,46307.36
2018-08-30T20:54:10.155Z,46309.30
2018-08-30T20:56:15.346Z,46308.33
2018-08-30T20:58:20.512Z,46291.88
2018-08-30T21:00:25.561Z,46316.07
2018-08-30T21:02:30.447Z,46291.88
2018-08-30T21:04:35.395Z,46312.20
2018-08-30T21:06:40.494Z,46291.88
2018-08-30T21:08:45.501Z,46300.59
2018-08-30T21:10:51.489Z,46298.65
2018-08-30T21:12:56.264Z,46293.81
2018-08-30T21:15:01.047Z,46297.68
2018-08-30T21:17:06.343Z,46307.36
2018-08-30T21:19:11.109Z,46294.78
2018-08-30T21:21:15.852Z,46294.78
2018-08-30T21:23:20.795Z,46302.52
2018-08-30T21:25:25.807Z,46315.11
2018-08-30T21:27:30.712Z,46285.10
2018-08-30T21:29:35.752Z,46282.20
2018-08-30T21:31:40.528Z,46302.52
2018-08-30T21:33:45.304Z,46291.88
2018-08-30T21:35:50.432Z,46290.91
2018-08-30T21:37:55.337Z,46289.94
2018-08-30T21:40:00.542Z,46288.97
2018-08-30T21:42:05.708Z,46295.75
2018-08-30T21:44:10.551Z,46296.72
2018-08-30T21:46:15.381Z,46289.94
2018-08-30T21:48:20.541Z,46288.01
2018-08-30T21:50:25.438Z,46284.14
2018-08-30T21:52:30.218Z,46298.65
2018-08-30T21:54:35.085Z,46278.33
2018-08-30T21:56:39.875Z,46284.14
2018-08-30T21:58:44.831Z,46288.97
2018-08-30T22:00:49.725Z,46291.88
2018-08-30T22:02:54.714Z,46286.07
2018-08-30T22:04:59.693Z,46269.62
2018-08-30T22:07:04.607Z,46275.43
2018-08-30T22:09:11.722Z,46271.55
2018-08-30T22:11:16.446Z,46278.33
2018-08-30T22:13:21.396Z,46287.04
2018-08-30T22:15:26.146Z,46267.68
2018-08-30T22:17:30.952Z,46280.27
2018-08-30T22:19:35.884Z,46267.68
2018-08-30T22:21:40.779Z,46288.01
2018-08-30T22:23:45.497Z,46280.27
2018-08-30T22:25:50.412Z,46272.52
2018-08-30T22:27:55.221Z,46286.07
2018-08-30T22:30:00.071Z,46279.30
2018-08-30T22:32:04.991Z,46282.20
2018-08-30T22:34:09.728Z,46280.27
2018-08-30T22:36:14.742Z,46274.46
2018-08-30T22:38:19.527Z,46288.01
2018-08-30T22:40:24.424Z,46293.81
2018-08-30T22:42:29.066Z,46271.55
2018-08-30T22:44:33.946Z,46271.55
2018-08-30T22:46:38.726Z,46268.65
2018-08-30T22:48:43.631Z,46277.36
2018-08-30T22:50:48.420Z,46274.46
2018-08-30T22:52:53.102Z,46260.91
2018-08-30T22:54:57.962Z,46256.07
2018-08-30T22:57:02.885Z,46252.20
2018-08-30T22:59:07.806Z,46258.97
2018-08-30T23:01:12.669Z,46253.17
2018-08-30T23:03:17.473Z,46268.65
2018-08-30T23:05:22.162Z,46271.55
2018-08-30T23:07:27.251Z,46228.01
2018-08-30T23:09:32.048Z,46261.87
2018-08-30T23:11:36.943Z,46263.81
2018-08-30T23:13:41.692Z,46261.87
2018-08-30T23:15:46.363Z,46253.17
2018-08-30T23:17:51.278Z,46264.78
2018-08-30T23:19:56.261Z,46259.94
2018-08-30T23:22:01.247Z,46253.17
2018-08-30T23:24:06.409Z,46251.23
2018-08-30T23:28:18.403Z,46244.46
2018-08-30T23:30:23.482Z,46247.36
2018-08-30T23:32:28.407Z,46262.84
2018-08-30T23:34:33.152Z,46240.59
2018-08-30T23:36:37.989Z,46261.87
2018-08-30T23:38:42.888Z,46238.65
2018-08-30T23:40:47.914Z,46228.01
2018-08-30T23:42:52.703Z,46241.55
2018-08-30T23:44:57.588Z,46239.62
2018-08-30T23:47:02.490Z,46264.78
2018-08-30T23:49:07.745Z,46258.97
2018-08-30T23:51:12.720Z,46247.36
2018-08-30T23:53:17.634Z,46262.84
2018-08-30T23:55:22.482Z,46229.94
2018-08-30T23:57:27.192Z,46228.01
